sensor_id;sensor_type;location;lat;lon;timestamp;pressure;altitude;pressure_sealevel;temperature;humidity
44734;BME280;30462;52.446;-1.930;2023-04-24T00:00:18;99278.16797;;;;
44734;BME280;30462;52.446;-1.930;2023-04-24T00:01:18;99279.26172;;;;
44734;BME280;30462;52.446;-1.930;2023-04-24T00:02:18;99280.85156;;;;
44734;BME280;30462;52.446;-1.930;2023-04-24T00:03:18;99279.52734;;;;
44734;BME280;30462;52.446;-1.930;2023-04-24T00:04:18;99285.08594;;;;
44734;BME280;30462;52.446;-1.930;2023-04-24T00:05:18;99286.48438;;;;
44734;BME280;30462;52.446;-1.930;2023-04-24T00:06:17;99286.32031;;;;
44734;BME280;30462;52.446;-1.930;2023-04-24T00:07:18;99286.42969;;;;
44734;BME280;30462;52.446;-1.930;2023-04-24T00:08:18;99289.42969;;;;
44734;BME280;30462;52.446;-1.930;2023-04-24T00:09:18;99290.6875;;;;
44734;BME280;30462;52.446;-1.930;2023-04-24T00:10:18;99289.6875;;;;
44734;BME280;30462;52.446;-1.930;2023-04-24T00:11:18;99294.62891;;;;
44734;BME280;30462;52.446;-1.930;2023-04-24T00:12:17;99293.92188;;;;
44734;BME280;30462;52.446;-1.930;2023-04-24T00:13:18;99293.54297;;;;
44734;BME280;30462;52.446;-1.930;2023-04-24T00:14:18;99294.52344;;;;
44734;BME280;30462;52.446;-1.930;2023-04-24T00:15:18;99295.39844;;;;
44734;BME280;30462;52.446;-1.930;2023-04-24T00:16:18;99297.72656;;;;
44734;BME280;30462;52.446;-1.930;2023-04-24T00:17:18;99300;;;;
44734;BME280;30462;52.446;-1.930;2023-04-24T00:18:18;99298.64063;;;;
44734;BME280;30462;52.446;-1.930;2023-04-24T00:19:18;99298.88281;;;;
44734;BME280;30462;52.446;-1.930;2023-04-24T00:20:18;99300.19141;;;;
44734;BME280;30462;52.446;-1.930;2023-04-24T00:21:18;99299.75781;;;;
44734;BME280;30462;52.446;-1.930;2023-04-24T00:22:18;99298.42969;;;;
44734;BME280;30462;52.446;-1.930;2023-04-24T00:23:18;99293.76172;;;;
44734;BME280;30462;52.446;-1.930;2023-04-24T00:24:18;99292.92578;;;;
44734;BME280;30462;52.446;-1.930;2023-04-24T00:25:18;99291.67578;;;;
44734;BME280;30462;52.446;-1.930;2023-04-24T00:26:18;99288.40234;;;;
44734;BME280;30462;52.446;-1.930;2023-04-24T00:27:18;99288.40625;;;;
44734;BME280;30462;52.446;-1.930;2023-04-24T00:28:18;99285.30469;;;;
44734;BME280;30462;52.446;-1.930;2023-04-24T00:29:18;99283.78125;;;;
44734;BME280;30462;52.446;-1.930;2023-04-24T00:30:18;99280.35547;;;;
44734;BME280;30462;52.446;-1.930;2023-04-24T00:31:18;99281.57031;;;;
44734;BME280;30462;52.446;-1.930;2023-04-24T00:32:17;99285.23828;;;;
44734;BME280;30462;52.446;-1.930;2023-04-24T00:33:18;99284.32813;;;;
44734;BME280;30462;52.446;-1.930;2023-04-24T00:34:17;99288.51953;;;;
44734;BME280;30462;52.446;-1.930;2023-04-24T00:35:17;99292.33203;;;;
44734;BME280;30462;52.446;-1.930;2023-04-24T00:36:18;99291.89453;;;;
44734;BME280;30462;52.446;-1.930;2023-04-24T00:37:18;99291.23828;;;;
44734;BME280;30462;52.446;-1.930;2023-04-24T00:38:18;99294.85547;;;;
44734;BME280;30462;52.446;-1.930;2023-04-24T00:39:18;99297.01563;;;;
44734;BME280;30462;52.446;-1.930;2023-04-24T00:40:18;99297.77734;;;;
44734;BME280;30462;52.446;-1.930;2023-04-24T00:41:18;99296.30469;;;;
44734;BME280;30462;52.446;-1.930;2023-04-24T00:42:18;99293.58594;;;;
44734;BME280;30462;52.446;-1.930;2023-04-24T00:43:18;99295.32422;;;;
44734;BME280;30462;52.446;-1.930;2023-04-24T00:44:18;99294.55078;;;;
44734;BME280;30462;52.446;-1.930;2023-04-24T00:45:18;99294.38672;;;;
44734;BME280;30462;52.446;-1.930;2023-04-24T00:46:17;99290.29688;;;;
44734;BME280;30462;52.446;-1.930;2023-04-24T00:47:17;99292.64063;;;;
44734;BME280;30462;52.446;-1.930;2023-04-24T00:48:18;99296.41797;;;;
44734;BME280;30462;52.446;-1.930;2023-04-24T00:49:18;99298.87109;;;;
44734;BME280;30462;52.446;-1.930;2023-04-24T00:50:18;99297.72266;;;;
44734;BME280;30462;52.446;-1.930;2023-04-24T00:51:18;99298.49219;;;;
44734;BME280;30462;52.446;-1.930;2023-04-24T00:52:18;99300.28906;;;;
44734;BME280;30462;52.446;-1.930;2023-04-24T00:53:18;99303.58984;;;;
44734;BME280;30462;52.446;-1.930;2023-04-24T00:54:18;99304.75;;;;
44734;BME280;30462;52.446;-1.930;2023-04-24T00:55:18;99306.38672;;;;
44734;BME280;30462;52.446;-1.930;2023-04-24T00:56:18;99305.89453;;;;
44734;BME280;30462;52.446;-1.930;2023-04-24T00:57:18;99308.83594;;;;
44734;BME280;30462;52.446;-1.930;2023-04-24T00:58:18;99308.48047;;;;
44734;BME280;30462;52.446;-1.930;2023-04-24T00:59:18;99309.29688;;;;
44734;BME280;30462;52.446;-1.930;2023-04-24T01:00:18;99311.03516;;;;
44734;BME280;30462;52.446;-1.930;2023-04-24T01:01:18;99314.14063;;;;
44734;BME280;30462;52.446;-1.930;2023-04-24T01:02:18;99313.47266;;;;
44734;BME280;30462;52.446;-1.930;2023-04-24T01:03:18;99313.98047;;;;
44734;BME280;30462;52.446;-1.930;2023-04-24T01:04:18;99314.18359;;;;
44734;BME280;30462;52.446;-1.930;2023-04-24T01:05:18;99312.35156;;;;
44734;BME280;30462;52.446;-1.930;2023-04-24T01:06:18;99311.24219;;;;
44734;BME280;30462;52.446;-1.930;2023-04-24T01:07:18;99312.65625;;;;
44734;BME280;30462;52.446;-1.930;2023-04-24T01:08:18;99314.25391;;;;
44734;BME280;30462;52.446;-1.930;2023-04-24T01:09:18;99317.99609;;;;
44734;BME280;30462;52.446;-1.930;2023-04-24T01:10:18;99321.375;;;;
44734;BME280;30462;52.446;-1.930;2023-04-24T01:11:18;99323.76953;;;;
44734;BME280;30462;52.446;-1.930;2023-04-24T01:12:18;99325.78516;;;;
44734;BME280;30462;52.446;-1.930;2023-04-24T01:13:18;99327.47656;;;;
44734;BME280;30462;52.446;-1.930;2023-04-24T01:14:18;99330.14063;;;;
44734;BME280;30462;52.446;-1.930;2023-04-24T01:15:17;99326.76953;;;;
44734;BME280;30462;52.446;-1.930;2023-04-24T01:16:17;99329.16406;;;;
44734;BME280;30462;52.446;-1.930;2023-04-24T01:17:18;99325.46875;;;;
44734;BME280;30462;52.446;-1.930;2023-04-24T01:18:18;99328.46875;;;;
44734;BME280;30462;52.446;-1.930;2023-04-24T01:19:19;99327.36328;;;;
44734;BME280;30462;52.446;-1.930;2023-04-24T01:20:18;99329.43359;;;;
44734;BME280;30462;52.446;-1.930;2023-04-24T01:21:18;99328.17969;;;;
44734;BME280;30462;52.446;-1.930;2023-04-24T01:22:18;99332.25391;;;;
44734;BME280;30462;52.446;-1.930;2023-04-24T01:23:18;99329.14844;;;;
44734;BME280;30462;52.446;-1.930;2023-04-24T01:24:18;99334.38672;;;;
44734;BME280;30462;52.446;-1.930;2023-04-24T01:25:18;99332.19531;;;;
44734;BME280;30462;52.446;-1.930;2023-04-24T01:26:18;99330.23438;;;;
44734;BME280;30462;52.446;-1.930;2023-04-24T01:27:18;99329.24219;;;;
44734;BME280;30462;52.446;-1.930;2023-04-24T01:28:18;99328.53516;;;;
44734;BME280;30462;52.446;-1.930;2023-04-24T01:29:18;99333.05469;;;;
44734;BME280;30462;52.446;-1.930;2023-04-24T01:30:18;99330.98047;;;;
44734;BME280;30462;52.446;-1.930;2023-04-24T01:31:18;99331.69141;;;;
44734;BME280;30462;52.446;-1.930;2023-04-24T01:32:18;99329.67578;;;;
44734;BME280;30462;52.446;-1.930;2023-04-24T01:33:18;99327.15234;;;;
44734;BME280;30462;52.446;-1.930;2023-04-24T01:34:17;99327.58984;;;;
44734;BME280;30462;52.446;-1.930;2023-04-24T01:35:18;99323.23438;;;;
44734;BME280;30462;52.446;-1.930;2023-04-24T01:36:18;99325.19141;;;;
44734;BME280;30462;52.446;-1.930;2023-04-24T01:37:18;99320.34766;;;;
44734;BME280;30462;52.446;-1.930;2023-04-24T01:38:18;99322.37891;;;;
44734;BME280;30462;52.446;-1.930;2023-04-24T01:39:18;99324.00781;;;;
44734;BME280;30462;52.446;-1.930;2023-04-24T01:40:18;99323.58594;;;;
44734;BME280;30462;52.446;-1.930;2023-04-24T01:41:18;99323.53125;;;;
44734;BME280;30462;52.446;-1.930;2023-04-24T01:42:19;99327.34375;;;;
44734;BME280;30462;52.446;-1.930;2023-04-24T01:43:18;99324.02344;;;;
44734;BME280;30462;52.446;-1.930;2023-04-24T01:44:18;99329.29297;;;;
44734;BME280;30462;52.446;-1.930;2023-04-24T01:45:18;99329.36328;;;;
44734;BME280;30462;52.446;-1.930;2023-04-24T01:46:18;99329.5625;;;;
44734;BME280;30462;52.446;-1.930;2023-04-24T01:47:18;99334.46875;;;;
44734;BME280;30462;52.446;-1.930;2023-04-24T01:48:18;99333.32422;;;;
44734;BME280;30462;52.446;-1.930;2023-04-24T01:49:18;99335.71875;;;;
44734;BME280;30462;52.446;-1.930;2023-04-24T01:50:18;99338.17188;;;;
44734;BME280;30462;52.446;-1.930;2023-04-24T01:51:18;99338.76953;;;;
44734;BME280;30462;52.446;-1.930;2023-04-24T01:52:18;99340.1875;;;;
44734;BME280;30462;52.446;-1.930;2023-04-24T01:53:18;99337.45313;;;;
44734;BME280;30462;52.446;-1.930;2023-04-24T01:54:18;99339.30078;;;;
44734;BME280;30462;52.446;-1.930;2023-04-24T01:55:18;99337.30469;;;;
44734;BME280;30462;52.446;-1.930;2023-04-24T01:56:18;99337.08594;;;;
44734;BME280;30462;52.446;-1.930;2023-04-24T01:57:18;99338.38281;;;;
44734;BME280;30462;52.446;-1.930;2023-04-24T01:58:18;99334.35156;;;;
44734;BME280;30462;52.446;-1.930;2023-04-24T01:59:18;99337.82422;;;;
44734;BME280;30462;52.446;-1.930;2023-04-24T02:00:18;99337.21094;;;;
44734;BME280;30462;52.446;-1.930;2023-04-24T02:01:18;99335.46875;;;;
44734;BME280;30462;52.446;-1.930;2023-04-24T02:02:18;99335.94141;;;;
44734;BME280;30462;52.446;-1.930;2023-04-24T02:03:18;99335.08594;;;;
44734;BME280;30462;52.446;-1.930;2023-04-24T02:04:18;99333.88281;;;;
44734;BME280;30462;52.446;-1.930;2023-04-24T02:05:18;99329.80078;;;;
44734;BME280;30462;52.446;-1.930;2023-04-24T02:06:18;99330.78516;;;;
44734;BME280;30462;52.446;-1.930;2023-04-24T02:07:18;99329.20313;;;;
44734;BME280;30462;52.446;-1.930;2023-04-24T02:08:18;99330.02344;;;;
44734;BME280;30462;52.446;-1.930;2023-04-24T02:09:18;99329.83984;;;;
44734;BME280;30462;52.446;-1.930;2023-04-24T02:10:18;99328.69531;;;;
44734;BME280;30462;52.446;-1.930;2023-04-24T02:11:18;99330.25781;;;;
44734;BME280;30462;52.446;-1.930;2023-04-24T02:12:18;99329.94922;;;;
44734;BME280;30462;52.446;-1.930;2023-04-24T02:13:18;99334.19922;;;;
44734;BME280;30462;52.446;-1.930;2023-04-24T02:14:18;99332.18359;;;;
44734;BME280;30462;52.446;-1.930;2023-04-24T02:15:18;99334.79688;;;;
44734;BME280;30462;52.446;-1.930;2023-04-24T02:16:18;99334.37891;;;;
44734;BME280;30462;52.446;-1.930;2023-04-24T02:17:18;99335.13672;;;;
44734;BME280;30462;52.446;-1.930;2023-04-24T02:18:18;99340.80078;;;;
44734;BME280;30462;52.446;-1.930;2023-04-24T02:19:18;99336.74219;;;;
44734;BME280;30462;52.446;-1.930;2023-04-24T02:20:18;99336.07813;;;;
44734;BME280;30462;52.446;-1.930;2023-04-24T02:21:18;99336.40625;;;;
44734;BME280;30462;52.446;-1.930;2023-04-24T02:22:18;99334.8125;;;;
44734;BME280;30462;52.446;-1.930;2023-04-24T02:23:18;99339.45703;;;;
44734;BME280;30462;52.446;-1.930;2023-04-24T02:24:18;99339.95313;;;;
44734;BME280;30462;52.446;-1.930;2023-04-24T02:25:18;99339.55078;;;;
44734;BME280;30462;52.446;-1.930;2023-04-24T02:26:18;99342.67578;;;;
44734;BME280;30462;52.446;-1.930;2023-04-24T02:27:18;99339.93359;;;;
44734;BME280;30462;52.446;-1.930;2023-04-24T02:28:18;99340.51953;;;;
44734;BME280;30462;52.446;-1.930;2023-04-24T02:29:18;99340.72266;;;;
44734;BME280;30462;52.446;-1.930;2023-04-24T02:30:18;99339.63281;;;;
44734;BME280;30462;52.446;-1.930;2023-04-24T02:31:18;99338.52734;;;;
44734;BME280;30462;52.446;-1.930;2023-04-24T02:32:17;99343.22266;;;;
44734;BME280;30462;52.446;-1.930;2023-04-24T02:33:18;99344.17969;;;;
44734;BME280;30462;52.446;-1.930;2023-04-24T02:34:18;99347.29297;;;;
44734;BME280;30462;52.446;-1.930;2023-04-24T02:35:18;99345.48047;;;;
44734;BME280;30462;52.446;-1.930;2023-04-24T02:36:17;99346.93359;;;;
44734;BME280;30462;52.446;-1.930;2023-04-24T02:37:18;99349.11719;;;;
44734;BME280;30462;52.446;-1.930;2023-04-24T02:38:18;99349.75391;;;;
44734;BME280;30462;52.446;-1.930;2023-04-24T02:39:18;99352.09766;;;;
44734;BME280;30462;52.446;-1.930;2023-04-24T02:40:18;99350.83984;;;;
44734;BME280;30462;52.446;-1.930;2023-04-24T02:41:18;99351.71094;;;;
44734;BME280;30462;52.446;-1.930;2023-04-24T02:42:18;99352.54688;;;;
44734;BME280;30462;52.446;-1.930;2023-04-24T02:43:18;99355.63672;;;;
44734;BME280;30462;52.446;-1.930;2023-04-24T02:44:18;99356.46875;;;;
44734;BME280;30462;52.446;-1.930;2023-04-24T02:45:18;99358.44922;;;;
44734;BME280;30462;52.446;-1.930;2023-04-24T02:46:18;99356.26953;;;;
44734;BME280;30462;52.446;-1.930;2023-04-24T02:47:18;99355.89063;;;;
44734;BME280;30462;52.446;-1.930;2023-04-24T02:48:18;99355.05469;;;;
44734;BME280;30462;52.446;-1.930;2023-04-24T02:49:18;99360.72656;;;;
44734;BME280;30462;52.446;-1.930;2023-04-24T02:50:18;99360.10938;;;;
44734;BME280;30462;52.446;-1.930;2023-04-24T02:51:18;99357.62109;;;;
44734;BME280;30462;52.446;-1.930;2023-04-24T02:52:18;99361.32813;;;;
44734;BME280;30462;52.446;-1.930;2023-04-24T02:53:18;99368.86328;;;;
44734;BME280;30462;52.446;-1.930;2023-04-24T02:54:18;99368.78516;;;;
44734;BME280;30462;52.446;-1.930;2023-04-24T02:55:18;99369.83594;;;;
44734;BME280;30462;52.446;-1.930;2023-04-24T02:56:17;99376.27344;;;;
44734;BME280;30462;52.446;-1.930;2023-04-24T02:57:17;99376.27344;;;;
44734;BME280;30462;52.446;-1.930;2023-04-24T02:58:18;99376.83203;;;;
44734;BME280;30462;52.446;-1.930;2023-04-24T02:59:18;99377.54297;;;;
44734;BME280;30462;52.446;-1.930;2023-04-24T03:00:18;99379.30859;;;;
44734;BME280;30462;52.446;-1.930;2023-04-24T03:01:18;99380.05859;;;;
44734;BME280;30462;52.446;-1.930;2023-04-24T03:02:17;99379.01563;;;;
44734;BME280;30462;52.446;-1.930;2023-04-24T03:03:17;99380.27344;;;;
44734;BME280;30462;52.446;-1.930;2023-04-24T03:04:18;99376.62109;;;;
44734;BME280;30462;52.446;-1.930;2023-04-24T03:05:18;99380.47656;;;;
44734;BME280;30462;52.446;-1.930;2023-04-24T03:06:18;99379.17188;;;;
44734;BME280;30462;52.446;-1.930;2023-04-24T03:07:18;99382.64453;;;;
44734;BME280;30462;52.446;-1.930;2023-04-24T03:08:18;99385.59375;;;;
44734;BME280;30462;52.446;-1.930;2023-04-24T03:09:18;99385.6875;;;;
44734;BME280;30462;52.446;-1.930;2023-04-24T03:10:18;99388.57813;;;;
44734;BME280;30462;52.446;-1.930;2023-04-24T03:11:18;99388.74219;;;;
44734;BME280;30462;52.446;-1.930;2023-04-24T03:12:18;99390.63281;;;;
44734;BME280;30462;52.446;-1.930;2023-04-24T03:13:17;99393.64453;;;;
44734;BME280;30462;52.446;-1.930;2023-04-24T03:14:17;99392.17188;;;;
44734;BME280;30462;52.446;-1.930;2023-04-24T03:15:17;99391.75391;;;;
44734;BME280;30462;52.446;-1.930;2023-04-24T03:16:17;99398.72266;;;;
44734;BME280;30462;52.446;-1.930;2023-04-24T03:17:18;99399.71094;;;;
44734;BME280;30462;52.446;-1.930;2023-04-24T03:18:18;99398.89063;;;;
44734;BME280;30462;52.446;-1.930;2023-04-24T03:19:18;99404.54297;;;;
44734;BME280;30462;52.446;-1.930;2023-04-24T03:20:18;99401.61719;;;;
44734;BME280;30462;52.446;-1.930;2023-04-24T03:21:17;99402.47266;;;;
44734;BME280;30462;52.446;-1.930;2023-04-24T03:22:18;99405.14063;;;;
44734;BME280;30462;52.446;-1.930;2023-04-24T03:23:18;99401.82422;;;;
44734;BME280;30462;52.446;-1.930;2023-04-24T03:24:18;99406;;;;
44734;BME280;30462;52.446;-1.930;2023-04-24T03:25:18;99403.51172;;;;
44734;BME280;30462;52.446;-1.930;2023-04-24T03:26:18;99404.28906;;;;
44734;BME280;30462;52.446;-1.930;2023-04-24T03:27:18;99407.77344;;;;
44734;BME280;30462;52.446;-1.930;2023-04-24T03:28:18;99409.625;;;;
44734;BME280;30462;52.446;-1.930;2023-04-24T03:29:18;99405.70313;;;;
44734;BME280;30462;52.446;-1.930;2023-04-24T03:30:18;99410.99609;;;;
44734;BME280;30462;52.446;-1.930;2023-04-24T03:31:18;99411.72656;;;;
44734;BME280;30462;52.446;-1.930;2023-04-24T03:32:18;99410.41406;;;;
44734;BME280;30462;52.446;-1.930;2023-04-24T03:33:17;99414.54297;;;;
44734;BME280;30462;52.446;-1.930;2023-04-24T03:34:17;99412.42578;;;;
44734;BME280;30462;52.446;-1.930;2023-04-24T03:35:17;99418.54297;;;;
44734;BME280;30462;52.446;-1.930;2023-04-24T03:36:18;99420.73047;;;;
44734;BME280;30462;52.446;-1.930;2023-04-24T03:37:18;99421.27734;;;;
44734;BME280;30462;52.446;-1.930;2023-04-24T03:38:18;99421.88281;;;;
44734;BME280;30462;52.446;-1.930;2023-04-24T03:39:18;99421.16797;;;;
44734;BME280;30462;52.446;-1.930;2023-04-24T03:40:18;99420.625;;;;
44734;BME280;30462;52.446;-1.930;2023-04-24T03:41:18;99426.29688;;;;
44734;BME280;30462;52.446;-1.930;2023-04-24T03:42:17;99427.11328;;;;
44734;BME280;30462;52.446;-1.930;2023-04-24T03:43:18;99429.07422;;;;
44734;BME280;30462;52.446;-1.930;2023-04-24T03:44:18;99426.57031;;;;
44734;BME280;30462;52.446;-1.930;2023-04-24T03:45:18;99427.88672;;;;
44734;BME280;30462;52.446;-1.930;2023-04-24T03:46:18;99428.3125;;;;
44734;BME280;30462;52.446;-1.930;2023-04-24T03:47:18;99430.41016;;;;
44734;BME280;30462;52.446;-1.930;2023-04-24T03:48:18;99438.14063;;;;
44734;BME280;30462;52.446;-1.930;2023-04-24T03:49:18;99434.75781;;;;
44734;BME280;30462;52.446;-1.930;2023-04-24T03:50:18;99435.35938;;;;
44734;BME280;30462;52.446;-1.930;2023-04-24T03:51:18;99434.80859;;;;
44734;BME280;30462;52.446;-1.930;2023-04-24T03:52:18;99439.52734;;;;
44734;BME280;30462;52.446;-1.930;2023-04-24T03:53:18;99437.41016;;;;
44734;BME280;30462;52.446;-1.930;2023-04-24T03:54:18;99439.86328;;;;
44734;BME280;30462;52.446;-1.930;2023-04-24T03:55:18;99442.57031;;;;
44734;BME280;30462;52.446;-1.930;2023-04-24T03:56:18;99438.64844;;;;
44734;BME280;30462;52.446;-1.930;2023-04-24T03:57:18;99437.87109;;;;
44734;BME280;30462;52.446;-1.930;2023-04-24T03:58:18;99440.70703;;;;
44734;BME280;30462;52.446;-1.930;2023-04-24T03:59:18;99439.40234;;;;
44734;BME280;30462;52.446;-1.930;2023-04-24T04:00:18;99440.80859;;;;
44734;BME280;30462;52.446;-1.930;2023-04-24T04:01:18;99444.02734;;;;
44734;BME280;30462;52.446;-1.930;2023-04-24T04:02:18;99443.35938;;;;
44734;BME280;30462;52.446;-1.930;2023-04-24T04:03:18;99445.15625;;;;
44734;BME280;30462;52.446;-1.930;2023-04-24T04:04:18;99445.57813;;;;
44734;BME280;30462;52.446;-1.930;2023-04-24T04:05:18;99443.07422;;;;
44734;BME280;30462;52.446;-1.930;2023-04-24T04:06:18;99444.71094;;;;
44734;BME280;30462;52.446;-1.930;2023-04-24T04:07:18;99446.0625;;;;
44734;BME280;30462;52.446;-1.930;2023-04-24T04:08:18;99444.33203;;;;
44734;BME280;30462;52.446;-1.930;2023-04-24T04:09:18;99444.25391;;;;
44734;BME280;30462;52.446;-1.930;2023-04-24T04:10:18;99446.96875;;;;
44734;BME280;30462;52.446;-1.930;2023-04-24T04:11:18;99447.09375;;;;
44734;BME280;30462;52.446;-1.930;2023-04-24T04:12:17;99448.27734;;;;
44734;BME280;30462;52.446;-1.930;2023-04-24T04:13:18;99449.41797;;;;
44734;BME280;30462;52.446;-1.930;2023-04-24T04:14:17;99449.97656;;;;
44734;BME280;30462;52.446;-1.930;2023-04-24T04:15:18;99446.96484;;;;
44734;BME280;30462;52.446;-1.930;2023-04-24T04:16:17;99446.64063;;;;
44734;BME280;30462;52.446;-1.930;2023-04-24T04:17:18;99443.37891;;;;
44734;BME280;30462;52.446;-1.930;2023-04-24T04:18:18;99444.83203;;;;
44734;BME280;30462;52.446;-1.930;2023-04-24T04:19:18;99448.79688;;;;
44734;BME280;30462;52.446;-1.930;2023-04-24T04:20:18;99449.74609;;;;
44734;BME280;30462;52.446;-1.930;2023-04-24T04:21:17;99453.83203;;;;
44734;BME280;30462;52.446;-1.930;2023-04-24T04:22:17;99453.75781;;;;
44734;BME280;30462;52.446;-1.930;2023-04-24T04:23:18;99455.36328;;;;
44734;BME280;30462;52.446;-1.930;2023-04-24T04:24:18;99458.88281;;;;
44734;BME280;30462;52.446;-1.930;2023-04-24T04:25:18;99463.00391;;;;
44734;BME280;30462;52.446;-1.930;2023-04-24T04:26:18;99465.43359;;;;
44734;BME280;30462;52.446;-1.930;2023-04-24T04:27:18;99467.03906;;;;
44734;BME280;30462;52.446;-1.930;2023-04-24T04:28:18;99468.46484;;;;
44734;BME280;30462;52.446;-1.930;2023-04-24T04:29:18;99471.60547;;;;
44734;BME280;30462;52.446;-1.930;2023-04-24T04:30:18;99472.17969;;;;
44734;BME280;30462;52.446;-1.930;2023-04-24T04:31:18;99475.55078;;;;
44734;BME280;30462;52.446;-1.930;2023-04-24T04:32:18;99472.39453;;;;
44734;BME280;30462;52.446;-1.930;2023-04-24T04:33:18;99478.61328;;;;
44734;BME280;30462;52.446;-1.930;2023-04-24T04:34:18;99475.80859;;;;
44734;BME280;30462;52.446;-1.930;2023-04-24T04:35:18;99480.08203;;;;
44734;BME280;30462;52.446;-1.930;2023-04-24T04:36:18;99483.43359;;;;
44734;BME280;30462;52.446;-1.930;2023-04-24T04:37:18;99478.94141;;;;
44734;BME280;30462;52.446;-1.930;2023-04-24T04:38:18;99479.17969;;;;
44734;BME280;30462;52.446;-1.930;2023-04-24T04:39:18;99480.80859;;;;
44734;BME280;30462;52.446;-1.930;2023-04-24T04:40:18;99481.67188;;;;
44734;BME280;30462;52.446;-1.930;2023-04-24T04:41:18;99481.72656;;;;
44734;BME280;30462;52.446;-1.930;2023-04-24T04:42:18;99484.76953;;;;
44734;BME280;30462;52.446;-1.930;2023-04-24T04:43:18;99484.61719;;;;
44734;BME280;30462;52.446;-1.930;2023-04-24T04:44:18;99481.91406;;;;
44734;BME280;30462;52.446;-1.930;2023-04-24T04:45:18;99481.96875;;;;
44734;BME280;30462;52.446;-1.930;2023-04-24T04:46:17;99486.11328;;;;
44734;BME280;30462;52.446;-1.930;2023-04-24T04:47:18;99482.39063;;;;
44734;BME280;30462;52.446;-1.930;2023-04-24T04:48:18;99484.72266;;;;
44734;BME280;30462;52.446;-1.930;2023-04-24T04:49:18;99484.45703;;;;
44734;BME280;30462;52.446;-1.930;2023-04-24T04:50:18;99480.77734;;;;
44734;BME280;30462;52.446;-1.930;2023-04-24T04:51:18;99483.1875;;;;
44734;BME280;30462;52.446;-1.930;2023-04-24T04:52:18;99481.60938;;;;
44734;BME280;30462;52.446;-1.930;2023-04-24T04:53:18;99479.33594;;;;
44734;BME280;30462;52.446;-1.930;2023-04-24T04:54:18;99480.62891;;;;
44734;BME280;30462;52.446;-1.930;2023-04-24T04:55:18;99483.35156;;;;
44734;BME280;30462;52.446;-1.930;2023-04-24T04:56:18;99486.28516;;;;
44734;BME280;30462;52.446;-1.930;2023-04-24T04:57:18;99482.87891;;;;
44734;BME280;30462;52.446;-1.930;2023-04-24T04:58:18;99486.80859;;;;
44734;BME280;30462;52.446;-1.930;2023-04-24T04:59:18;99484.52344;;;;
44734;BME280;30462;52.446;-1.930;2023-04-24T05:00:18;99490.38672;;;;
44734;BME280;30462;52.446;-1.930;2023-04-24T05:01:18;99489.16016;;;;
44734;BME280;30462;52.446;-1.930;2023-04-24T05:02:18;99492.39453;;;;
44734;BME280;30462;52.446;-1.930;2023-04-24T05:03:18;99496.00391;;;;
44734;BME280;30462;52.446;-1.930;2023-04-24T05:04:18;99497.07031;;;;
44734;BME280;30462;52.446;-1.930;2023-04-24T05:05:18;99497.50781;;;;
44734;BME280;30462;52.446;-1.930;2023-04-24T05:06:18;99501.91016;;;;
44734;BME280;30462;52.446;-1.930;2023-04-24T05:07:18;99503.57422;;;;
44734;BME280;30462;52.446;-1.930;2023-04-24T05:08:17;99502.54297;;;;
44734;BME280;30462;52.446;-1.930;2023-04-24T05:09:18;99501.61719;;;;
44734;BME280;30462;52.446;-1.930;2023-04-24T05:10:17;99501.33594;;;;
44734;BME280;30462;52.446;-1.930;2023-04-24T05:11:18;99500.69141;;;;
44734;BME280;30462;52.446;-1.930;2023-04-24T05:12:18;99504.75;;;;
44734;BME280;30462;52.446;-1.930;2023-04-24T05:13:18;99504.00391;;;;
44734;BME280;30462;52.446;-1.930;2023-04-24T05:14:18;99505.38281;;;;
44734;BME280;30462;52.446;-1.930;2023-04-24T05:15:18;99508.73047;;;;
44734;BME280;30462;52.446;-1.930;2023-04-24T05:16:17;99511.02344;;;;
44734;BME280;30462;52.446;-1.930;2023-04-24T05:17:18;99509.03906;;;;
44734;BME280;30462;52.446;-1.930;2023-04-24T05:18:18;99511.53516;;;;
44734;BME280;30462;52.446;-1.930;2023-04-24T05:19:18;99507.87891;;;;
44734;BME280;30462;52.446;-1.930;2023-04-24T05:20:18;99507.03125;;;;
44734;BME280;30462;52.446;-1.930;2023-04-24T05:21:18;99505.66406;;;;
44734;BME280;30462;52.446;-1.930;2023-04-24T05:22:18;99507.82813;;;;
44734;BME280;30462;52.446;-1.930;2023-04-24T05:23:18;99502.62109;;;;
44734;BME280;30462;52.446;-1.930;2023-04-24T05:24:18;99509.18359;;;;
44734;BME280;30462;52.446;-1.930;2023-04-24T05:25:18;99507.58203;;;;
44734;BME280;30462;52.446;-1.930;2023-04-24T05:26:18;99504.75781;;;;
44734;BME280;30462;52.446;-1.930;2023-04-24T05:27:19;99505.41016;;;;
44734;BME280;30462;52.446;-1.930;2023-04-24T05:28:18;99509.125;;;;
44734;BME280;30462;52.446;-1.930;2023-04-24T05:29:18;99507.98438;;;;
44734;BME280;30462;52.446;-1.930;2023-04-24T05:30:18;99510.71094;;;;
44734;BME280;30462;52.446;-1.930;2023-04-24T05:31:18;99509.63281;;;;
44734;BME280;30462;52.446;-1.930;2023-04-24T05:32:18;99510.4375;;;;
44734;BME280;30462;52.446;-1.930;2023-04-24T05:33:18;99510.73047;;;;
44734;BME280;30462;52.446;-1.930;2023-04-24T05:34:18;99511.60938;;;;
44734;BME280;30462;52.446;-1.930;2023-04-24T05:35:18;99509.79688;;;;
44734;BME280;30462;52.446;-1.930;2023-04-24T05:36:18;99514.30078;;;;
44734;BME280;30462;52.446;-1.930;2023-04-24T05:37:18;99515.66406;;;;
44734;BME280;30462;52.446;-1.930;2023-04-24T05:38:18;99513.15234;;;;
44734;BME280;30462;52.446;-1.930;2023-04-24T05:39:18;99514.97656;;;;
44734;BME280;30462;52.446;-1.930;2023-04-24T05:40:18;99513.40234;;;;
44734;BME280;30462;52.446;-1.930;2023-04-24T05:41:18;99514.76953;;;;
44734;BME280;30462;52.446;-1.930;2023-04-24T05:42:18;99514.60156;;;;
44734;BME280;30462;52.446;-1.930;2023-04-24T05:43:18;99513.98047;;;;
44734;BME280;30462;52.446;-1.930;2023-04-24T05:44:18;99515.9375;;;;
44734;BME280;30462;52.446;-1.930;2023-04-24T05:45:18;99513.34766;;;;